Time;durP1;ratioP1;P1;durP2;ratioP2;P2;SDS_P1;SDS_P2;PMS_P1;PMS_P2;Temp;Humidity;BMP_temperature;BMP_pressure;BME280_temperature;BME280_humidity;BME280_pressure;Samples;Min_cycle;Max_cycle;Signal;HPM_P1;HPM_P2
2023/09/04 00:01:35;;;;;;;6.50;5.90;;;;;;;14.45;100.00;101205.59;5000067;28;20302;-70
2023/09/04 00:04:01;;;;;;;6.50;5.87;;;;;;;14.40;100.00;101198.09;5000831;28;20178;-68
2023/09/04 00:06:27;;;;;;;5.93;5.43;;;;;;;14.36;100.00;101197.41;5008973;28;20273;-69
2023/09/04 00:08:57;;;;;;;6.53;6.03;;;;;;;14.38;100.00;101194.75;4999927;28;20611;-70
2023/09/04 00:11:22;;;;;;;6.07;5.53;;;;;;;14.32;100.00;101197.66;5010958;28;20430;-69
2023/09/04 00:13:48;;;;;;;6.73;6.03;;;;;;;14.23;100.00;101191.22;5036105;28;20270;-68
2023/09/04 00:16:13;;;;;;;11.17;6.63;;;;;;;14.25;100.00;101198.88;5031388;28;20215;-69
2023/09/04 00:18:38;;;;;;;10.33;6.67;;;;;;;14.13;100.00;101210.72;5031651;28;20197;-69
2023/09/04 00:21:04;;;;;;;6.53;5.77;;;;;;;14.10;100.00;101201.34;5021123;28;20230;-69
2023/09/04 00:23:29;;;;;;;7.60;6.33;;;;;;;14.09;100.00;101204.00;5019078;28;20301;-68
2023/09/04 00:25:54;;;;;;;6.90;6.23;;;;;;;14.07;100.00;101201.50;5011219;28;20193;-68
2023/09/04 00:28:20;;;;;;;10.27;6.67;;;;;;;14.06;100.00;101201.59;5011681;28;20585;-68
2023/09/04 00:30:46;;;;;;;7.50;6.50;;;;;;;14.04;100.00;101204.25;5016489;28;20801;-68
2023/09/04 00:33:11;;;;;;;7.17;6.13;;;;;;;13.96;100.00;101193.47;5036854;28;20520;-68
2023/09/04 00:35:36;;;;;;;8.20;6.07;;;;;;;13.93;100.00;101197.06;5033399;28;20328;-68
2023/09/04 00:38:02;;;;;;;7.57;6.87;;;;;;;13.93;100.00;101201.38;5034199;28;20261;-68
2023/09/04 00:40:27;;;;;;;7.20;6.27;;;;;;;13.86;100.00;101206.03;5024829;28;20581;-68
2023/09/04 00:42:52;;;;;;;6.87;6.27;;;;;;;13.85;100.00;101202.63;5027720;28;20714;-68
2023/09/04 00:45:17;;;;;;;6.80;6.20;;;;;;;13.82;100.00;101205.34;5030122;28;20341;-68
2023/09/04 00:47:44;;;;;;;7.97;6.60;;;;;;;13.76;100.00;101207.44;5013632;28;20194;-68
2023/09/04 00:50:13;;;;;;;7.77;6.50;;;;;;;13.74;100.00;101209.25;5007018;28;20214;-69
2023/09/04 00:52:40;;;;;;;6.93;6.23;;;;;;;13.71;100.00;101210.25;5033128;28;20182;-68
2023/09/04 00:55:06;;;;;;;7.50;6.57;;;;;;;13.66;100.00;101201.88;5033237;28;20327;-68
2023/09/04 00:57:34;;;;;;;7.37;6.67;;;;;;;13.62;100.00;101203.78;5034763;28;20200;-68
2023/09/04 01:00:04;;;;;;;7.50;6.70;;;;;;;13.60;100.00;101200.41;5034595;28;20189;-68
2023/09/04 01:02:31;;;;;;;7.63;6.93;;;;;;;13.60;100.00;101210.75;4987745;28;20219;-68
2023/09/04 01:04:56;;;;;;;8.90;7.00;;;;;;;13.53;100.00;101199.03;5010394;28;20181;-69
2023/09/04 01:07:21;;;;;;;11.37;7.23;;;;;;;13.50;100.00;101194.03;5013067;28;20183;-68
2023/09/04 01:09:47;;;;;;;8.43;6.47;;;;;;;13.52;100.00;101193.06;5014932;28;20268;-69
2023/09/04 01:12:22;;;;;;;7.43;6.83;;;;;;;13.48;100.00;101195.84;5020479;28;20226;-68
2023/09/04 01:14:51;;;;;;;7.43;6.60;;;;;;;13.54;100.00;101193.81;5013200;28;20175;-68
2023/09/04 01:17:17;;;;;;;7.43;6.73;;;;;;;13.56;100.00;101197.16;5013559;28;20523;-68
2023/09/04 01:19:42;;;;;;;9.17;7.30;;;;;;;13.54;100.00;101193.81;5014721;28;20181;-68
2023/09/04 01:22:09;;;;;;;8.57;7.77;;;;;;;13.58;100.00;101189.31;5005382;28;20246;-68
2023/09/04 01:24:36;;;;;;;7.20;6.60;;;;;;;13.59;100.00;101188.41;5012876;28;20575;-68
2023/09/04 01:27:19;;;;;;;7.50;6.80;;;;;;;13.49;100.00;101184.63;5014810;28;20342;-68
2023/09/04 01:29:56;;;;;;;9.17;6.23;;;;;;;13.51;100.00;101187.97;5013494;28;20183;-69
2023/09/04 01:32:30;;;;;;;9.97;6.43;;;;;;;13.49;100.00;101189.78;5019764;28;20307;-69
2023/09/04 01:34:57;;;;;;;7.77;7.07;;;;;;;13.54;100.00;101190.38;5014084;28;20202;-69
2023/09/04 01:37:23;;;;;;;7.97;7.27;;;;;;;13.50;100.00;101189.69;5014458;28;20508;-69
2023/09/04 01:39:52;;;;;;;8.27;6.80;;;;;;;13.49;100.00;101180.25;5014173;28;20205;-68
2023/09/04 01:42:18;;;;;;;8.90;6.37;;;;;;;13.50;100.00;101179.34;5019492;28;20583;-68
2023/09/04 01:44:43;;;;;;;7.20;6.50;;;;;;;13.48;100.00;101177.75;5014259;28;20182;-68
2023/09/04 01:47:08;;;;;;;7.27;6.67;;;;;;;13.44;100.00;101173.66;5014353;28;20244;-68
2023/09/04 01:49:34;;;;;;;6.80;6.20;;;;;;;13.43;100.00;101175.41;5014299;28;20185;-68
2023/09/04 01:52:00;;;;;;;7.30;6.70;;;;;;;13.43;100.00;101177.16;5004784;28;20225;-69
2023/09/04 01:54:26;;;;;;;7.47;6.77;;;;;;;13.36;100.00;101174.84;5011842;28;20186;-68
2023/09/04 01:56:51;;;;;;;7.20;6.60;;;;;;;13.32;100.00;101167.31;5013907;28;20543;-69
2023/09/04 01:59:16;;;;;;;9.40;6.50;;;;;;;13.31;100.00;101173.38;5014042;28;20249;-69
2023/09/04 02:01:41;;;;;;;7.60;6.90;;;;;;;13.27;100.00;101171.88;5030415;28;20604;-69
2023/09/04 02:04:07;;;;;;;7.43;6.57;;;;;;;13.22;100.00;101172.94;5035605;28;20182;-69
2023/09/04 02:06:32;;;;;;;7.43;6.77;;;;;;;13.20;100.00;101173.94;5034031;28;20617;-69
2023/09/04 02:08:57;;;;;;;7.97;7.00;;;;;;;13.18;100.00;101173.16;5032520;28;20825;-69
2023/09/04 02:11:23;;;;;;;7.37;6.70;;;;;;;13.14;100.00;101172.47;5023065;28;20249;-69
2023/09/04 02:13:49;;;;;;;7.53;6.90;;;;;;;13.12;100.00;101174.28;5018039;28;20643;-69
2023/09/04 02:16:15;;;;;;;7.43;6.83;;;;;;;13.13;100.00;101172.56;5028408;28;20195;-69
2023/09/04 02:18:40;;;;;;;7.97;7.17;;;;;;;13.08;100.00;101173.63;5013801;28;20179;-69
2023/09/04 02:21:06;;;;;;;7.13;6.53;;;;;;;13.08;100.00;101180.50;5012081;28;20751;-69
2023/09/04 02:23:32;;;;;;;7.87;7.00;;;;;;;13.10;100.00;101176.13;5020520;28;20230;-69
2023/09/04 02:25:57;;;;;;;8.00;7.20;;;;;;;13.15;100.00;101175.91;5013155;28;20660;-69
2023/09/04 02:28:23;;;;;;;7.40;6.80;;;;;;;13.13;100.00;101173.38;5013424;28;20190;-69
2023/09/04 02:30:49;;;;;;;7.63;6.97;;;;;;;13.07;100.00;101169.34;5016055;28;20715;-69
2023/09/04 02:33:15;;;;;;;8.17;7.37;;;;;;;13.09;100.00;101169.28;5031507;28;20425;-69
2023/09/04 02:35:40;;;;;;;7.80;7.10;;;;;;;13.03;100.00;101172.97;5032539;28;20230;-69
2023/09/04 02:38:06;;;;;;;7.83;7.07;;;;;;;13.03;100.00;101178.13;5032815;28;20212;-69
2023/09/04 02:40:31;;;;;;;7.67;7.00;;;;;;;13.05;100.00;101175.50;5026887;28;20667;-69
2023/09/04 02:42:56;;;;;;;7.50;6.90;;;;;;;13.02;100.00;101173.91;5044509;28;20194;-69
2023/09/04 02:45:22;;;;;;;7.30;6.60;;;;;;;12.93;100.00;101178.66;5032691;28;20672;-69
2023/09/04 02:47:47;;;;;;;7.93;7.23;;;;;;;12.94;100.00;101182.91;5031165;28;20178;-68
2023/09/04 02:50:12;;;;;;;7.60;7.00;;;;;;;12.99;100.00;101178.38;5022805;28;20189;-69
2023/09/04 02:52:38;;;;;;;10.83;7.20;;;;;;;13.00;100.00;101180.03;5026284;28;20983;-69
2023/09/04 02:55:04;;;;;;;8.17;7.47;;;;;;;12.99;100.00;101184.38;5012743;28;20203;-69
2023/09/04 02:57:31;;;;;;;7.73;7.03;;;;;;;12.91;100.00;101181.31;5012766;28;20305;-68
2023/09/04 02:59:59;;;;;;;7.47;6.87;;;;;;;12.94;100.00;101172.56;5027952;28;20535;-68
2023/09/04 03:02:25;;;;;;;8.17;7.27;;;;;;;13.00;100.00;101167.13;5024124;28;20227;-68
2023/09/04 03:04:54;;;;;;;8.33;7.60;;;;;;;13.02;100.00;101167.88;5030987;28;20182;-68
2023/09/04 03:07:21;;;;;;;7.60;7.00;;;;;;;13.12;100.00;101166.53;5032617;28;20178;-68
2023/09/04 03:09:47;;;;;;;7.10;6.57;;;;;;;13.12;100.00;101157.97;5032820;28;20282;-69
2023/09/04 03:12:12;;;;;;;7.40;6.70;;;;;;;13.13;100.00;101162.22;5004279;28;20278;-69
2023/09/04 03:14:37;;;;;;;8.03;7.23;;;;;;;13.08;100.00;101159.84;5001442;28;20213;-69
2023/09/04 03:17:04;;;;;;;9.27;6.90;;;;;;;13.15;100.00;101158.66;5011027;28;20225;-69
2023/09/04 03:19:29;;;;;;;7.03;6.30;;;;;;;13.27;100.00;101154.59;5013014;28;20189;-69
2023/09/04 03:21:55;;;;;;;9.33;6.50;;;;;;;13.26;100.00;101162.44;5017459;28;20241;-69
2023/09/04 03:24:20;;;;;;;7.00;6.40;;;;;;;13.28;100.00;101165.81;5019254;28;20194;-69
2023/09/04 03:26:45;;;;;;;6.93;6.33;;;;;;;13.42;100.00;101158.25;5031333;28;20186;-69
2023/09/04 03:29:11;;;;;;;8.30;6.37;;;;;;;13.42;100.00;101162.56;5031588;28;20255;-69
2023/09/04 03:31:36;;;;;;;7.10;6.50;;;;;;;13.45;100.00;101162.44;5011411;28;20294;-69
2023/09/04 03:34:01;;;;;;;7.40;6.80;;;;;;;13.37;100.00;101165.34;5023739;28;20173;-68
2023/09/04 03:36:26;;;;;;;6.60;6.00;;;;;;;13.55;100.00;101161.03;5030992;28;20561;-69
2023/09/04 03:38:52;;;;;;;6.53;5.93;;;;;;;13.61;100.00;101165.09;5025689;28;20193;-69
2023/09/04 03:41:17;;;;;;;6.40;5.90;;;;;;;13.66;100.00;101173.44;5012940;28;20328;-68
2023/09/04 03:43:42;;;;;;;7.43;6.40;;;;;;;13.67;100.00;101168.19;5017220;28;20175;-70
2023/09/04 03:46:12;;;;;;;7.00;5.97;;;;;;;13.77;100.00;101165.13;5010877;28;20201;-69
2023/09/04 03:48:37;;;;;;;8.17;5.73;;;;;;;13.76;100.00;101166.88;5011523;28;20186;-68
2023/09/04 03:51:02;;;;;;;6.17;5.67;;;;;;;13.67;100.00;101168.19;5015656;28;20248;-69
2023/09/04 03:53:27;;;;;;;6.57;5.70;;;;;;;13.61;100.00;101158.16;5028034;28;20218;-70
2023/09/04 03:55:53;;;;;;;5.87;5.37;;;;;;;13.48;100.00;101163.13;5028642;28;20232;-69
2023/09/04 03:58:18;;;;;;;6.97;5.77;;;;;;;13.49;100.00;101172.50;5029884;28;20644;-69
2023/09/04 04:00:43;;;;;;;5.80;5.27;;;;;;;13.49;100.00;101163.94;5020387;28;20335;-69
2023/09/04 04:03:08;;;;;;;8.37;6.10;;;;;;;13.39;100.00;101173.88;5009419;28;20253;-68
2023/09/04 04:05:34;;;;;;;5.57;5.17;;;;;;;13.40;100.00;101167.81;5010163;28;20187;-69
2023/09/04 04:07:59;;;;;;;9.77;6.10;;;;;;;13.39;100.00;101160.97;5011164;28;20232;-69
2023/09/04 04:10:24;;;;;;;5.80;5.30;;;;;;;13.33;100.00;101167.22;5006018;28;20232;-68
2023/09/04 04:12:53;;;;;;;6.63;6.03;;;;;;;13.28;100.00;101169.22;5001269;28;20522;-68
2023/09/04 04:15:18;;;;;;;7.23;6.53;;;;;;;13.24;100.00;101173.69;5030065;28;20210;-68
2023/09/04 04:17:43;;;;;;;7.70;6.20;;;;;;;13.21;100.00;101173.84;5031132;28;20189;-68
2023/09/04 04:20:12;;;;;;;7.27;6.50;;;;;;;13.12;100.00;101171.69;5019333;28;20209;-69
2023/09/04 04:22:41;;;;;;;7.87;6.93;;;;;;;13.08;100.00;101173.63;4989187;28;1040927;-69
2023/09/04 04:25:07;;;;;;;6.83;6.20;;;;;;;13.05;100.00;101173.75;5009763;28;20654;-69
2023/09/04 04:27:32;;;;;;;7.03;6.30;;;;;;;13.06;100.00;101174.56;5012019;28;20244;-69
2023/09/04 04:29:58;;;;;;;10.80;6.57;;;;;;;13.00;100.00;101175.72;5011393;28;20183;-69
2023/09/04 04:32:24;;;;;;;7.13;6.43;;;;;;;12.93;100.00;101173.50;5001288;28;20241;-68
2023/09/04 04:34:49;;;;;;;7.87;6.33;;;;;;;12.91;100.00;101173.56;5009904;28;20189;-68
2023/09/04 04:37:14;;;;;;;7.83;7.13;;;;;;;12.94;100.00;101170.00;5010533;28;20179;-68
2023/09/04 04:39:40;;;;;;;7.60;6.90;;;;;;;12.96;100.00;101168.19;5010267;28;20191;-68
2023/09/04 04:42:05;;;;;;;7.77;7.00;;;;;;;13.04;100.00;101172.06;5019696;28;20236;-69
2023/09/04 04:44:30;;;;;;;6.43;5.87;;;;;;;13.06;100.00;101172.84;5030694;28;20638;-69
2023/09/04 04:46:56;;;;;;;7.20;6.60;;;;;;;13.07;100.00;101178.84;5030246;28;20170;-69
2023/09/04 04:49:22;;;;;;;6.77;6.17;;;;;;;13.17;100.00;101174.06;5030044;28;20232;-69
2023/09/04 04:51:51;;;;;;;7.47;6.77;;;;;;;13.15;100.00;101179.31;5003205;28;20331;-77
2023/09/04 04:54:19;;;;;;;9.30;6.60;;;;;;;13.17;100.00;101179.22;5012618;28;20530;-72
2023/09/04 04:56:45;;;;;;;7.17;6.57;;;;;;;13.15;100.00;101184.47;5010438;28;20205;-72
2023/09/04 04:59:10;;;;;;;8.87;6.87;;;;;;;13.15;100.00;101179.31;5011603;28;20183;-71
2023/09/04 05:01:35;;;;;;;8.00;7.17;;;;;;;13.30;100.00;101177.72;5025975;28;20291;-71
2023/09/04 05:04:01;;;;;;;7.43;6.80;;;;;;;13.35;100.00;101185.25;5029719;28;20546;-72
2023/09/04 05:06:26;;;;;;;7.33;6.33;;;;;;;13.42;100.00;101191.00;5045644;28;20178;-69
2023/09/04 05:08:51;;;;;;;7.30;6.60;;;;;;;13.45;100.00;101186.50;5031119;28;20205;-68
2023/09/04 05:11:17;;;;;;;7.50;6.77;;;;;;;13.52;100.00;101190.47;5030663;28;20239;-69
2023/09/04 05:13:42;;;;;;;7.47;6.77;;;;;;;13.56;100.00;101188.56;5036535;28;20190;-68
2023/09/04 05:16:08;;;;;;;6.83;6.10;;;;;;;13.57;100.00;101190.25;5032807;28;20684;-69
2023/09/04 05:18:33;;;;;;;7.63;6.50;;;;;;;13.67;100.00;101190.63;5033449;28;20182;-68
2023/09/04 05:20:59;;;;;;;6.73;6.13;;;;;;;13.70;100.00;101180.13;5032121;28;20225;-67
2023/09/04 05:23:24;;;;;;;6.10;5.50;;;;;;;13.87;100.00;101181.84;5032913;28;20355;-68
2023/09/04 05:25:50;;;;;;;7.67;5.50;;;;;;;13.86;100.00;101180.19;5034065;28;20186;-68
2023/09/04 05:28:16;;;;;;;6.40;5.37;;;;;;;13.88;100.00;101175.78;5033339;28;20265;-69
2023/09/04 05:30:41;;;;;;;5.53;5.03;;;;;;;13.97;100.00;101179.63;5029502;28;20324;-69
2023/09/04 05:33:06;;;;;;;8.00;5.77;;;;;;;14.02;100.00;101178.47;5045429;28;20630;-69
2023/09/04 05:35:32;;;;;;;5.20;4.67;;;;;;;14.10;100.00;101180.66;5034280;28;20210;-70
2023/09/04 05:37:58;;;;;;;8.03;5.23;;;;;;;14.15;100.00;101175.25;5027253;28;20171;-69
2023/09/04 05:40:24;;;;;;;9.60;5.40;;;;;;;14.24;100.00;101181.69;5017750;28;20233;-69
2023/09/04 05:42:49;;;;;;;9.47;4.67;;;;;;;14.26;100.00;101183.25;5026784;28;20179;-69
2023/09/04 05:45:16;;;;;;;5.70;4.97;;;;;;;14.29;100.00;101185.72;5012785;28;20197;-69
2023/09/04 05:47:41;;;;;;;6.47;5.07;;;;;;;14.43;100.00;101187.56;5014508;28;20539;-69
2023/09/04 05:50:07;;;;;;;6.00;4.57;;;;;;;14.45;100.00;101180.56;5004103;28;20186;-69
2023/09/04 05:52:32;;;;;;;6.77;5.47;;;;;;;14.43;100.00;101181.56;5042369;28;20179;-69
2023/09/04 05:54:57;;;;;;;6.20;4.50;;;;;;;14.55;100.00;101186.06;5032297;28;20174;-69
2023/09/04 05:57:23;;;;;;;6.17;5.20;;;;;;;14.64;100.00;101180.38;5032762;28;20584;-69
2023/09/04 05:59:49;;;;;;;4.97;4.20;;;;;;;14.76;100.00;101178.06;5032363;28;20174;-68
2023/09/04 06:02:14;;;;;;;6.77;4.40;;;;;;;14.74;100.00;101182.53;5020880;28;20248;-68
2023/09/04 06:04:39;;;;;;;7.17;4.77;;;;;;;14.80;100.00;101177.00;5013563;28;20171;-68
2023/09/04 06:07:06;;;;;;;5.13;4.63;;;;;;;14.95;100.00;101178.72;5012776;28;20194;-69
2023/09/04 06:09:32;;;;;;;8.00;5.47;;;;;;;14.98;100.00;101170.81;5012747;28;20262;-68
2023/09/04 06:11:57;;;;;;;6.77;4.70;;;;;;;15.03;100.00;101174.88;5017934;28;20229;-69
2023/09/04 06:14:23;;;;;;;6.73;4.63;;;;;;;15.05;100.00;101168.69;5014142;28;20682;-68
2023/09/04 06:16:48;;;;;;;5.10;4.10;;;;;;;15.25;100.00;101170.13;5012281;28;20202;-69
2023/09/04 06:19:13;;;;;;;6.43;4.57;;;;;;;15.21;100.00;101175.56;5001554;28;20202;-68
2023/09/04 06:21:39;;;;;;;5.60;4.77;;;;;;;15.27;100.00;101173.50;5015535;28;20238;-69
2023/09/04 06:24:04;;;;;;;6.93;4.40;;;;;;;15.47;100.00;101166.31;5016085;28;20191;-70
2023/09/04 06:26:29;;;;;;;4.73;4.23;;;;;;;15.50;100.00;101163.53;5027935;28;20646;-70
2023/09/04 06:28:55;;;;;;;5.37;4.60;;;;;;;15.52;100.00;101171.22;5011723;28;20175;-70
2023/09/04 06:31:20;;;;;;;6.63;4.23;;;;;;;15.58;100.00;101161.34;5015482;28;20225;-69
2023/09/04 06:33:47;;;;;;;5.73;4.03;;;;;;;15.65;100.00;101167.84;5037700;28;20185;-69
2023/09/04 06:36:12;;;;;;;8.23;4.63;;;;;;;15.77;100.00;101163.66;5032520;28;20206;-68
2023/09/04 06:38:38;;;;;;;4.50;4.10;;;;;;;16.00;100.00;101160.66;5032011;28;20201;-68
2023/09/04 06:41:03;;;;;;;6.53;4.30;;;;;;;16.55;100.00;101164.22;5016112;28;20319;-68
2023/09/04 06:43:29;;;;;;;4.07;3.63;;;;;;;17.10;100.00;101152.06;5011059;28;20566;-67
2023/09/04 06:45:54;;;;;;;4.17;3.67;;;;;;;17.81;100.00;101154.31;5012637;28;20194;-67
2023/09/04 06:48:20;;;;;;;4.30;3.87;;;;;;;18.77;100.00;101145.88;5011811;28;20182;-67
2023/09/04 06:50:49;;;;;;;3.43;3.13;;;;;;;19.12;100.00;101146.88;5008378;28;20566;-68
2023/09/04 06:53:15;;;;;;;4.93;3.23;;;;;;;20.07;100.00;101138.84;5011725;28;20195;-69
2023/09/04 06:55:41;;;;;;;5.07;3.63;;;;;;;21.17;100.00;101134.47;5012330;28;20214;-68
2023/09/04 06:58:06;;;;;;;4.23;3.03;;;;;;;22.17;100.00;101133.00;5011205;28;20189;-68
2023/09/04 07:00:31;;;;;;;4.33;2.40;;;;;;;22.64;100.00;101132.41;5004614;28;20701;-67
2023/09/04 07:02:56;;;;;;;3.53;2.53;;;;;;;22.51;97.47;101135.28;5024093;28;20179;-67
2023/09/04 07:05:23;;;;;;;4.13;3.10;;;;;;;22.96;97.86;101139.16;5012761;28;20203;-68
2023/09/04 07:07:48;;;;;;;4.47;2.75;;;;;;;22.66;97.28;101136.56;5012309;28;20202;-68
2023/09/04 07:10:13;;;;;;;2.67;2.47;;;;;;;22.90;98.49;101148.41;5004064;28;20249;-68
2023/09/04 07:12:40;;;;;;;17.63;12.57;;;;;;;22.10;100.00;101143.19;5025562;28;20194;-68
2023/09/04 07:15:06;;;;;;;6.15;3.00;;;;;;;22.07;100.00;101152.13;5012266;28;20194;-68
2023/09/04 07:17:31;;;;;;;4.50;2.97;;;;;;;23.17;97.85;101149.50;5012623;28;20198;-68
2023/09/04 07:19:56;;;;;;;4.25;3.20;;;;;;;23.25;93.97;101141.78;5012288;28;20231;-68
2023/09/04 07:22:22;;;;;;;2.88;2.58;;;;;;;24.02;90.47;101152.97;5016896;28;20284;-67
2023/09/04 07:24:47;;;;;;;3.13;2.88;;;;;;;23.52;91.33;101148.88;5012379;28;20196;-67
2023/09/04 07:27:12;;;;;;;4.85;3.38;;;;;;;24.01;88.32;101151.34;5012400;28;20631;-67
2023/09/04 07:29:37;;;;;;;2.85;2.55;;;;;;;24.16;84.88;101151.69;5011300;28;20186;-67
2023/09/04 07:32:03;;;;;;;3.55;2.63;;;;;;;23.88;88.82;101155.25;4984266;28;20228;-69
2023/09/04 07:34:29;;;;;;;5.10;3.90;;;;;;;25.07;85.54;101154.34;5046606;28;20228;-68
2023/09/04 07:36:54;;;;;;;4.40;2.70;;;;;;;26.06;72.55;101150.47;5031852;28;20209;-66
2023/09/04 07:39:19;;;;;;;4.15;2.65;;;;;;;25.56;77.03;101154.66;5030129;28;20231;-67
2023/09/04 07:41:44;;;;;;;5.82;2.80;;;;;;;25.38;71.65;101154.75;5014358;28;20605;-68
2023/09/04 07:44:10;;;;;;;6.13;2.50;;;;;;;25.35;73.55;101151.56;5003691;28;20182;-68
2023/09/04 07:46:35;;;;;;;3.47;3.10;;;;;;;24.72;79.39;101161.28;5012429;28;20283;-68
2023/09/04 07:49:00;;;;;;;2.70;2.35;;;;;;;24.34;83.40;101162.22;5011245;28;20186;-68
2023/09/04 07:51:26;;;;;;;6.38;2.90;;;;;;;23.83;84.90;101155.69;5012649;28;20221;-67
2023/09/04 07:53:51;;;;;;;4.97;2.90;;;;;;;23.37;89.96;101156.38;5016860;28;20189;-67
2023/09/04 07:56:16;;;;;;;3.15;2.40;;;;;;;24.16;88.23;101158.72;5011500;28;20785;-67
2023/09/04 07:58:42;;;;;;;4.07;2.33;;;;;;;24.01;85.63;101166.28;5011142;28;20175;-67
2023/09/04 08:01:13;;;;;;;3.17;2.88;;;;;;;23.98;83.48;101151.63;5008147;28;20751;-67
2023/09/04 08:03:38;;;;;;;6.15;2.42;;;;;;;24.12;83.09;101158.19;5022755;28;20185;-67
2023/09/04 08:06:04;;;;;;;3.67;2.40;;;;;;;25.31;76.87;101151.06;5031328;28;20194;-68
2023/09/04 08:08:29;;;;;;;4.10;2.70;;;;;;;24.48;78.71;101145.09;5029672;28;20219;-63
2023/09/04 08:10:54;;;;;;;4.40;3.83;;;;;;;24.37;79.40;101144.50;5020845;28;20221;-64
2023/09/04 08:13:20;;;;;;;5.25;2.63;;;;;;;24.49;80.95;101153.81;5010158;28;20182;-65
2023/09/04 08:15:45;;;;;;;6.18;2.60;;;;;;;24.07;81.20;101144.66;5010899;28;20210;-65
2023/09/04 08:18:11;;;;;;;3.67;2.60;;;;;;;24.81;76.49;101149.88;5011743;28;20191;-64
2023/09/04 08:20:38;;;;;;;4.18;2.30;;;;;;;24.78;76.38;101144.91;5005951;28;20229;-64
2023/09/04 08:23:04;;;;;;;4.68;2.38;;;;;;;24.69;75.35;101149.25;5008055;28;20231;-65
2023/09/04 08:25:29;;;;;;;2.83;2.30;;;;;;;25.22;71.12;101152.00;5016310;28;20694;-65
2023/09/04 08:27:54;;;;;;;3.08;2.78;;;;;;;25.54;72.70;101151.38;4996607;28;20230;-64
2023/09/04 08:30:20;;;;;;;4.57;2.75;;;;;;;24.87;71.34;101153.69;4999012;28;20280;-64
2023/09/04 08:32:45;;;;;;;3.10;2.45;;;;;;;26.26;62.74;101144.94;5044454;28;20182;-64
2023/09/04 08:35:11;;;;;;;3.83;2.83;;;;;;;25.52;64.78;101150.72;5030653;28;20183;-64
2023/09/04 08:37:37;;;;;;;2.60;2.40;;;;;;;26.75;59.07;101146.81;5030005;28;20186;-64
2023/09/04 08:40:02;;;;;;;5.03;2.70;;;;;;;27.57;54.63;101148.53;5022925;28;20273;-64
2023/09/04 08:42:28;;;;;;;4.57;2.05;;;;;;;27.44;51.31;101154.34;5009079;28;20195;-63
2023/09/04 08:44:56;;;;;;;4.93;2.45;;;;;;;27.79;50.28;101151.44;5007422;28;20187;-63
2023/09/04 08:47:21;;;;;;;2.80;2.22;;;;;;;28.69;45.55;101146.63;5009828;28;20186;-63
2023/09/04 08:49:47;;;;;;;2.85;2.08;;;;;;;26.79;50.24;101140.22;5010416;28;20183;-63
2023/09/04 08:52:13;;;;;;;2.38;2.17;;;;;;;28.00;48.79;101148.19;5023291;28;20299;-63
2023/09/04 08:54:40;;;;;;;2.30;2.10;;;;;;;27.41;48.92;101146.75;5028743;28;20260;-63
2023/09/04 08:57:05;;;;;;;3.55;2.40;;;;;;;26.66;51.73;101143.31;5028723;28;20728;-64
2023/09/04 08:59:30;;;;;;;3.83;2.00;;;;;;;26.19;53.52;101138.66;5033572;28;20316;-64
2023/09/04 09:01:56;;;;;;;2.50;2.28;;;;;;;27.45;50.87;101140.16;5022975;28;20234;-64
2023/09/04 09:04:22;;;;;;;2.95;2.35;;;;;;;26.55;51.74;101144.47;5013878;28;20178;-64
2023/09/04 09:06:51;;;;;;;3.47;2.10;;;;;;;26.89;52.16;101140.03;5001452;28;20233;-65
2023/09/04 09:09:21;;;;;;;3.88;2.40;;;;;;;27.18;50.00;101150.09;5006811;28;20634;-65
2023/09/04 09:11:46;;;;;;;3.83;2.28;;;;;;;27.36;49.79;101139.31;5018946;28;20600;-65
2023/09/04 09:14:15;;;;;;;4.20;2.00;;;;;;;27.66;48.49;101136.94;5036166;28;20182;-65
2023/09/04 09:16:40;;;;;;;2.30;2.10;;;;;;;28.81;45.58;101142.56;5027943;28;20256;-75
2023/09/04 09:19:09;;;;;;;2.42;2.03;;;;;;;28.96;44.51;101146.06;5034043;28;20186;-62
2023/09/04 09:21:34;;;;;;;3.75;2.38;;;;;;;26.55;49.98;101141.81;5021505;28;20261;-70
2023/09/04 09:24:07;;;;;;;3.03;1.98;;;;;;;26.32;50.58;101143.44;5012382;28;20209;-68
2023/09/04 09:26:32;;;;;;;4.15;2.00;;;;;;;27.75;47.59;101140.38;5014939;28;20170;-70
2023/09/04 09:28:57;;;;;;;2.08;1.90;;;;;;;27.60;46.41;101139.44;5014919;28;20225;-70
2023/09/04 09:31:23;;;;;;;2.33;2.03;;;;;;;27.31;49.13;101132.88;5002064;28;20217;-68
2023/09/04 09:33:48;;;;;;;2.05;1.85;;;;;;;28.31;45.13;101131.50;5018172;28;20194;-69
2023/09/04 09:36:14;;;;;;;2.92;2.20;;;;;;;27.94;44.68;101127.72;5013403;28;20207;-70
2023/09/04 09:38:45;;;;;;;6.20;1.88;;;;;;;29.20;42.60;101140.69;5014869;28;20523;-70
2023/09/04 09:41:15;;;;;;;3.70;2.20;;;;;;;29.24;42.55;101132.22;5013092;28;20225;-69
2023/09/04 09:43:43;;;;;;;5.50;1.92;;;;;;;30.34;40.04;101132.34;5020608;28;20249;-68
2023/09/04 09:46:09;;;;;;;2.70;2.00;;;;;;;30.96;37.85;101131.84;5013979;28;20183;-69
2023/09/04 09:48:36;;;;;;;4.13;2.03;;;;;;;30.31;39.30;101131.91;5014376;28;20190;-68
2023/09/04 09:51:06;;;;;;;1.92;1.50;;;;;;;28.35;41.30;101130.16;5011612;28;20655;-69
2023/09/04 09:53:49;;;;;;;4.75;2.03;;;;;;;28.23;40.65;101123.63;5021698;28;20179;-69
2023/09/04 09:56:16;;;;;;;3.15;2.28;;;;;;;28.61;42.07;101124.50;5013902;28;20258;-70
2023/09/04 09:58:44;;;;;;;2.33;1.98;;;;;;;27.17;43.79;101113.28;5013075;28;20522;-69
2023/09/04 10:01:13;;;;;;;3.42;2.50;;;;;;;28.02;43.34;101111.81;5012123;28;20237;-69
2023/09/04 10:03:39;;;;;;;3.83;2.35;;;;;;;28.17;42.79;101107.47;5020384;28;20600;-69
2023/09/04 10:06:06;;;;;;;2.33;2.10;;;;;;;28.43;41.24;101106.28;5013500;28;20202;-70
2023/09/04 10:08:51;;;;;;;5.70;2.13;;;;;;;27.27;42.62;101111.28;5014072;28;20189;-70
2023/09/04 10:11:17;;;;;;;2.30;1.92;;;;;;;28.03;40.64;101106.38;5013613;28;20237;-70
2023/09/04 10:14:14;;;;;;;2.55;2.20;;;;;;;28.49;40.05;101113.50;5019609;28;20268;-69
2023/09/04 10:16:50;;;;;;;2.58;1.80;;;;;;;27.90;39.61;101095.53;5001280;28;20749;-69
2023/09/04 10:19:17;;;;;;;2.03;1.75;;;;;;;29.23;38.46;101108.56;5014133;28;20642;-69
2023/09/04 10:21:51;;;;;;;3.53;1.63;;;;;;;28.61;38.48;101094.56;5016435;28;20230;-69
2023/09/04 10:24:27;;;;;;;3.15;2.15;;;;;;;28.13;39.27;101103.53;5011854;28;20189;-70
2023/09/04 10:27:02;;;;;;;1.80;1.70;;;;;;;28.47;38.82;101081.09;5013899;28;20650;-70
2023/09/04 10:29:30;;;;;;;3.22;2.25;;;;;;;28.26;38.63;101079.13;5013595;28;20182;-71
2023/09/04 10:31:56;;;;;;;2.40;1.70;;;;;;;27.83;39.51;101074.22;5015740;28;20234;-70
2023/09/04 10:34:22;;;;;;;2.53;2.03;;;;;;;26.74;44.24;101072.09;5013073;28;20550;-69
2023/09/04 10:36:48;;;;;;;2.63;1.80;;;;;;;27.00;46.37;101072.88;5013466;28;20203;-70
2023/09/04 10:39:13;;;;;;;2.80;1.80;;;;;;;26.46;44.23;101068.97;5012112;28;20657;-70
2023/09/04 10:41:39;;;;;;;3.15;1.77;;;;;;;25.87;44.11;101059.28;5005248;28;20226;-69
2023/09/04 10:44:05;;;;;;;3.38;2.03;;;;;;;24.63;46.14;101066.50;5011586;28;20218;-68
2023/09/04 10:46:30;;;;;;;2.63;2.10;;;;;;;24.53;51.71;101063.13;5013489;28;20199;-68
2023/09/04 10:48:55;;;;;;;2.90;2.03;;;;;;;24.24;49.90;101061.56;5013163;28;20179;-69
2023/09/04 10:51:29;;;;;;;5.93;2.55;;;;;;;24.05;53.03;101064.31;5013022;28;20233;-69
2023/09/04 10:53:56;;;;;;;3.72;2.15;;;;;;;23.58;52.03;101057.38;5017432;28;20186;-69
2023/09/04 10:56:21;;;;;;;2.85;1.80;;;;;;;23.56;52.75;101056.72;5012615;28;20206;-69
2023/09/04 10:59:03;;;;;;;5.47;2.05;;;;;;;23.58;52.08;101045.09;5013225;28;20252;-69
2023/09/04 11:01:38;;;;;;;4.22;2.10;;;;;;;23.56;51.13;101035.69;5006337;28;20284;-69
2023/09/04 11:04:08;;;;;;;1.70;1.60;;;;;;;23.62;51.09;101032.50;5030607;28;20181;-68
2023/09/04 11:06:36;;;;;;;2.45;1.90;;;;;;;23.51;51.51;101031.69;5032999;28;20191;-69
2023/09/04 11:09:02;;;;;;;1.70;1.60;;;;;;;23.55;51.34;101028.78;5032611;28;20189;-69
2023/09/04 11:11:28;;;;;;;2.60;1.90;;;;;;;23.62;48.32;101025.41;5033624;28;20252;-69
2023/09/04 11:13:58;;;;;;;3.60;1.53;;;;;;;23.75;48.96;101024.25;5023058;28;20205;-69
2023/09/04 11:16:25;;;;;;;1.67;1.53;;;;;;;23.82;48.35;101027.94;5032108;28;20236;-68